createdAt,value
2022-12-06T00:00:18.066Z,101522.91
2022-12-06T00:03:40.878Z,101526.41
2022-12-06T00:07:04.202Z,101527.31
2022-12-06T00:10:25.886Z,101525.41
2022-12-06T00:13:48.299Z,101530.59
2022-12-06T00:17:09.888Z,101526.19
2022-12-06T00:20:31.779Z,101524.47
2022-12-06T00:23:57.247Z,101516.38
2022-12-06T00:27:18.930Z,101512.25
2022-12-06T00:30:40.898Z,101503.34
2022-12-06T00:34:03.003Z,101510.41
2022-12-06T00:37:24.905Z,101510.41
2022-12-06T00:40:48.136Z,101509.47
2022-12-06T00:44:10.425Z,101515.66
2022-12-06T00:47:32.033Z,101516.59
2022-12-06T00:50:53.650Z,101513.03
2022-12-06T00:54:16.121Z,101511.25
2022-12-06T00:57:38.835Z,101513.03
2022-12-06T01:01:09.540Z,101519.19
2022-12-06T01:04:31.403Z,101511.31
2022-12-06T01:07:53.290Z,101512.25
2022-12-06T01:11:16.579Z,101512.50
2022-12-06T01:14:42.254Z,101506.59
2022-12-06T01:18:04.000Z,101510.09
2022-12-06T01:21:27.266Z,101508.22
2022-12-06T01:24:49.243Z,101497.75
2022-12-06T01:28:10.799Z,101494.50
2022-12-06T01:31:38.822Z,101490.91
2022-12-06T01:35:00.978Z,101489.28
2022-12-06T01:38:23.234Z,101486.22
2022-12-06T01:41:45.254Z,101483.72
2022-12-06T01:45:08.296Z,101482.75
2022-12-06T01:48:31.290Z,101483.53
2022-12-06T01:51:57.810Z,101480.09
2022-12-06T01:55:20.901Z,101481.03
2022-12-06T01:58:46.042Z,101478.31
2022-12-06T02:02:09.152Z,101477.47
2022-12-06T02:05:37.466Z,101479.19
2022-12-06T02:09:05.414Z,101471.16
2022-12-06T02:12:27.201Z,101471.25
2022-12-06T02:15:57.516Z,101476.53
2022-12-06T02:19:51.181Z,101472.09
2022-12-06T02:23:54.524Z,101459.78
2022-12-06T02:27:33.247Z,101463.50
2022-12-06T02:31:00.702Z,101461.69
2022-12-06T02:34:30.847Z,101461.84
2022-12-06T02:37:57.927Z,101450.44
2022-12-06T02:41:25.143Z,101450.50
2022-12-06T02:44:50.897Z,101456.00
2022-12-06T02:48:16.090Z,101444.47
2022-12-06T02:51:39.414Z,101455.88
2022-12-06T02:55:02.913Z,101442.69
2022-12-06T02:58:24.986Z,101444.31
2022-12-06T03:01:50.411Z,101447.03
2022-12-06T03:05:23.053Z,101434.06
2022-12-06T03:08:55.473Z,101432.50
2022-12-06T03:12:25.639Z,101427.22
2022-12-06T03:15:54.210Z,101424.59
2022-12-06T03:19:19.886Z,101422.88
2022-12-06T03:22:47.710Z,101423.72
2022-12-06T03:26:12.922Z,101415.03
2022-12-06T03:29:38.568Z,101411.63
2022-12-06T03:33:01.102Z,101403.94
2022-12-06T03:36:24.210Z,101413.53
2022-12-06T03:39:51.187Z,101413.38
2022-12-06T03:43:12.857Z,101413.38
2022-12-06T03:46:38.211Z,101415.94
2022-12-06T03:50:04.012Z,101414.22
2022-12-06T03:53:26.052Z,101423.91
2022-12-06T03:56:49.082Z,101420.81
2022-12-06T04:00:11.735Z,101420.09
2022-12-06T04:03:33.612Z,101414.81
2022-12-06T04:06:55.350Z,101407.81
2022-12-06T04:10:16.665Z,101414.03
2022-12-06T04:13:40.835Z,101407.28
2022-12-06T04:17:19.882Z,101399.38
2022-12-06T04:21:01.051Z,101391.34
2022-12-06T04:24:22.763Z,101387.69
2022-12-06T04:28:01.903Z,101383.97
2022-12-06T04:31:42.680Z,101373.38
2022-12-06T04:35:22.027Z,101369.81
2022-12-06T04:38:43.837Z,101367.22
2022-12-06T04:42:23.549Z,101362.88
2022-12-06T04:45:45.158Z,101366.31
2022-12-06T04:49:08.398Z,101360.97
2022-12-06T04:52:35.194Z,101361.84
2022-12-06T04:55:57.119Z,101353.94
2022-12-06T04:59:18.834Z,101357.56
2022-12-06T05:02:42.524Z,101356.56
2022-12-06T05:06:05.782Z,101357.72
2022-12-06T05:09:27.379Z,101356.84
2022-12-06T05:12:49.263Z,101347.47
2022-12-06T05:16:13.248Z,101349.06
2022-12-06T05:19:34.967Z,101358.53
2022-12-06T05:22:58.323Z,101359.41
2022-12-06T05:26:21.500Z,101348.78
2022-12-06T05:29:43.410Z,101350.41
2022-12-06T05:33:05.111Z,101335.47
2022-12-06T05:36:28.419Z,101348.72
2022-12-06T05:39:51.678Z,101344.53
2022-12-06T05:43:13.554Z,101340.25
2022-12-06T05:46:35.363Z,101347.38
2022-12-06T05:49:56.834Z,101346.44
2022-12-06T05:53:19.137Z,101346.69
2022-12-06T05:56:42.059Z,101345.91
2022-12-06T06:00:04.925Z,101339.06
2022-12-06T06:03:28.394Z,101345.41
2022-12-06T06:06:51.283Z,101342.69
2022-12-06T06:10:13.486Z,101344.47
2022-12-06T06:13:36.904Z,101336.56
2022-12-06T06:16:58.479Z,101335.63
2022-12-06T06:20:20.159Z,101333.88
2022-12-06T06:23:41.922Z,101339.13
2022-12-06T06:27:03.952Z,101343.53
2022-12-06T06:30:29.426Z,101343.53
2022-12-06T06:33:51.042Z,101343.63
2022-12-06T06:37:13.046Z,101346.16
2022-12-06T06:40:34.904Z,101349.03
2022-12-06T06:43:56.923Z,101356.03
2022-12-06T06:47:20.142Z,101347.34
2022-12-06T06:50:42.054Z,101351.81
2022-12-06T06:54:04.883Z,101352.75
2022-12-06T06:57:26.826Z,101356.63
2022-12-06T07:00:54.041Z,101355.59
2022-12-06T07:04:17.139Z,101355.44
2022-12-06T07:07:38.802Z,101351.19
2022-12-06T07:11:01.279Z,101359.94
2022-12-06T07:14:22.918Z,101355.59
2022-12-06T07:17:45.099Z,101359.09
2022-12-06T07:21:11.015Z,101358.31
2022-12-06T07:24:36.931Z,101365.44
2022-12-06T07:28:01.521Z,101367.22
2022-12-06T07:31:25.759Z,101367.16
2022-12-06T07:34:47.506Z,101365.44
2022-12-06T07:38:10.850Z,101369.78
2022-12-06T07:41:49.996Z,101375.06
2022-12-06T07:45:38.073Z,101376.97
2022-12-06T07:48:59.942Z,101370.72
2022-12-06T07:52:22.178Z,101375.91
2022-12-06T07:55:45.458Z,101367.16
2022-12-06T07:59:07.637Z,101367.00
2022-12-06T08:02:29.883Z,101371.50
2022-12-06T08:05:55.234Z,101370.56
2022-12-06T08:09:17.355Z,101369.22
2022-12-06T08:12:40.325Z,101370.97
2022-12-06T08:16:06.328Z,101369.13
2022-12-06T08:19:28.719Z,101372.81
2022-12-06T08:22:50.670Z,101367.69
2022-12-06T08:26:15.393Z,101369.41
2022-12-06T08:29:38.746Z,101362.53
2022-12-06T08:33:00.751Z,101359.78
2022-12-06T08:36:24.568Z,101361.66
2022-12-06T08:39:46.522Z,101362.38
2022-12-06T08:43:08.178Z,101369.25
2022-12-06T08:46:34.933Z,101372.13
2022-12-06T08:49:58.650Z,101361.50
2022-12-06T08:53:20.714Z,101358.81
2022-12-06T08:56:42.774Z,101369.13
2022-12-06T09:00:05.834Z,101369.97
2022-12-06T09:03:28.896Z,101368.97
2022-12-06T09:06:50.840Z,101365.28
2022-12-06T09:10:13.071Z,101369.78
2022-12-06T09:13:35.235Z,101365.56
2022-12-06T09:16:57.002Z,101366.28
2022-12-06T09:20:20.400Z,101361.00
2022-12-06T09:23:42.564Z,101357.44
2022-12-06T09:27:05.443Z,101358.22
2022-12-06T09:30:27.657Z,101362.66
2022-12-06T09:33:49.339Z,101360.88
2022-12-06T09:37:14.288Z,101359.34
2022-12-06T09:40:42.995Z,101352.63
2022-12-06T09:44:21.321Z,101356.03
2022-12-06T09:48:00.441Z,101349.97
2022-12-06T09:51:33.384Z,101346.72
2022-12-06T09:55:16.763Z,101340.50
2022-12-06T09:58:53.627Z,101334.31
2022-12-06T10:02:33.028Z,101329.84
2022-12-06T10:06:01.666Z,101326.97
2022-12-06T10:09:36.143Z,101321.78
2022-12-06T10:13:08.474Z,101307.91
2022-12-06T10:16:47.528Z,101300.72
2022-12-06T10:20:14.834Z,101306.63
2022-12-06T10:23:52.872Z,101303.00
2022-12-06T10:27:23.960Z,101304.63
2022-12-06T10:30:52.903Z,101299.34
2022-12-06T10:34:22.162Z,101301.22
2022-12-06T10:37:55.564Z,101297.31
2022-12-06T10:41:22.305Z,101303.28
2022-12-06T10:44:48.252Z,101307.06
2022-12-06T10:48:21.139Z,101299.22
2022-12-06T10:51:48.006Z,101302.09
2022-12-06T10:55:26.162Z,101298.22
2022-12-06T10:58:54.794Z,101291.25
2022-12-06T11:02:27.758Z,101288.47
2022-12-06T11:05:56.042Z,101290.53
2022-12-06T11:09:22.088Z,101276.28
2022-12-06T11:12:44.703Z,101270.97
2022-12-06T11:16:12.324Z,101276.94
2022-12-06T11:19:37.558Z,101267.56
2022-12-06T11:23:11.559Z,101261.38
2022-12-06T11:26:41.414Z,101257.03
2022-12-06T11:30:03.778Z,101256.63
2022-12-06T11:33:31.952Z,101266.19
2022-12-06T11:37:00.093Z,101263.41
2022-12-06T11:40:27.369Z,101257.22
2022-12-06T11:43:50.230Z,101251.72
2022-12-06T11:47:17.516Z,101258.63
2022-12-06T11:50:39.280Z,101255.22
2022-12-06T11:54:05.356Z,101247.31
2022-12-06T11:57:33.313Z,101257.84
2022-12-06T12:01:02.494Z,101250.88
2022-12-06T12:04:35.864Z,101242.91
2022-12-06T12:08:00.753Z,101248.81
2022-12-06T12:11:24.687Z,101240.28
2022-12-06T12:14:55.113Z,101239.53
2022-12-06T12:18:24.175Z,101238.28
2022-12-06T12:21:50.999Z,101245.09
2022-12-06T12:25:27.513Z,101243.38
2022-12-06T12:29:05.677Z,101238.03
2022-12-06T12:32:28.716Z,101233.75
2022-12-06T12:35:53.995Z,101228.91
2022-12-06T12:39:24.823Z,101225.19
2022-12-06T12:42:47.553Z,101217.66
2022-12-06T12:46:22.315Z,101223.56
2022-12-06T12:50:01.675Z,101217.22
2022-12-06T12:53:31.339Z,101211.19
2022-12-06T12:56:53.546Z,101211.81
2022-12-06T13:00:17.089Z,101213.50
2022-12-06T13:03:54.370Z,101210.56
2022-12-06T13:07:24.290Z,101202.97
2022-12-06T13:10:51.756Z,101201.41
2022-12-06T13:14:23.238Z,101202.75
2022-12-06T13:17:49.143Z,101196.78
2022-12-06T13:21:20.635Z,101199.09
2022-12-06T13:24:46.493Z,101199.19
2022-12-06T13:28:17.108Z,101192.69
2022-12-06T13:31:42.210Z,101191.63
2022-12-06T13:35:08.137Z,101181.78
2022-12-06T13:38:32.747Z,101191.31
2022-12-06T13:42:16.622Z,101196.50
2022-12-06T13:45:42.654Z,101201.28
2022-12-06T13:49:24.242Z,101203.00
2022-12-06T13:53:02.247Z,101202.94
2022-12-06T13:56:29.838Z,101210.69
2022-12-06T13:59:53.285Z,101205.50
2022-12-06T14:03:42.398Z,101200.50
2022-12-06T14:10:27.942Z,101199.88
2022-12-06T14:14:00.046Z,101201.59
2022-12-06T14:17:59.485Z,101197.03
2022-12-06T14:21:06.966Z,101192.44
2022-12-06T14:28:03.647Z,101188.97
2022-12-06T14:31:28.268Z,101184.53
2022-12-06T14:34:51.484Z,101194.25
2022-12-06T14:38:23.402Z,101192.38
2022-12-06T14:42:11.025Z,101188.75
2022-12-06T14:45:36.417Z,101180.13
2022-12-06T14:49:15.175Z,101179.16
2022-12-06T14:52:55.850Z,101179.16
2022-12-06T14:56:28.697Z,101175.50
2022-12-06T15:00:18.501Z,101180.75
2022-12-06T15:03:41.775Z,101172.78
2022-12-06T15:07:03.791Z,101172.03
2022-12-06T15:10:30.040Z,101173.78
2022-12-06T15:14:12.562Z,101171.06
2022-12-06T15:17:34.067Z,101177.03
2022-12-06T15:20:56.359Z,101179.59
2022-12-06T15:24:20.226Z,101178.28
2022-12-06T15:27:43.174Z,101175.50
2022-12-06T15:31:06.586Z,101170.13
2022-12-06T15:34:30.365Z,101170.06
2022-12-06T15:37:51.581Z,101175.19
2022-12-06T15:41:17.566Z,101177.72
2022-12-06T15:44:45.679Z,101171.84
2022-12-06T15:48:10.620Z,101178.03
2022-12-06T15:51:32.579Z,101172.84
2022-12-06T15:54:54.587Z,101180.03
2022-12-06T15:58:16.315Z,101186.88
2022-12-06T16:01:45.179Z,101181.69
2022-12-06T16:05:07.722Z,101185.00
2022-12-06T16:08:29.523Z,101180.50
2022-12-06T16:11:51.554Z,101185.63
2022-12-06T16:15:14.104Z,101181.28
2022-12-06T16:18:37.562Z,101190.84
2022-12-06T16:21:59.226Z,101184.69
2022-12-06T16:25:21.325Z,101180.31
2022-12-06T16:28:43.303Z,101180.13
2022-12-06T16:32:05.272Z,101175.81
2022-12-06T16:35:29.006Z,101172.25
2022-12-06T16:38:54.778Z,101186.13
2022-12-06T16:42:16.399Z,101180.75
2022-12-06T16:45:40.226Z,101181.63
2022-12-06T16:49:36.915Z,101184.09
2022-12-06T16:52:47.709Z,101187.84
2022-12-06T16:56:10.647Z,101182.41
2022-12-06T16:59:32.561Z,101182.72
2022-12-06T17:02:54.655Z,101185.25
2022-12-06T17:06:16.674Z,101193.16
2022-12-06T17:09:39.652Z,101186.34
2022-12-06T17:13:02.096Z,101189.59
2022-12-06T17:16:23.693Z,101190.47
2022-12-06T17:19:45.857Z,101191.25
2022-12-06T17:23:07.482Z,101195.75
2022-12-06T17:26:32.970Z,101194.72
2022-12-06T17:29:54.543Z,101191.91
2022-12-06T17:33:16.629Z,101196.19
2022-12-06T17:36:38.429Z,101202.31
2022-12-06T17:39:59.940Z,101200.59
2022-12-06T17:43:23.384Z,101190.06
2022-12-06T17:46:45.111Z,101193.56
2022-12-06T17:50:08.374Z,101196.19
2022-12-06T17:53:29.988Z,101198.06
2022-12-06T17:56:52.905Z,101203.25
2022-12-06T18:00:17.295Z,101200.53
2022-12-06T18:03:39.346Z,101204.88
2022-12-06T18:07:01.316Z,101201.31
2022-12-06T18:10:23.632Z,101210.16
2022-12-06T18:13:46.058Z,101201.22
2022-12-06T18:17:09.134Z,101203.84
2022-12-06T18:20:31.159Z,101192.47
2022-12-06T18:24:20.199Z,101190.63
2022-12-06T18:27:35.079Z,101183.56
2022-12-06T18:30:57.021Z,101180.13
2022-12-06T18:34:20.910Z,101172.94
2022-12-06T18:37:42.534Z,101177.44
2022-12-06T18:41:05.382Z,101172.94
2022-12-06T18:44:27.176Z,101178.06
2022-12-06T18:47:49.473Z,101173.66
2022-12-06T18:51:15.574Z,101174.66
2022-12-06T18:54:37.615Z,101171.41
2022-12-06T18:57:59.242Z,101164.19
2022-12-06T19:01:23.649Z,101161.69
2022-12-06T19:04:45.283Z,101168.53
2022-12-06T19:08:09.375Z,101164.09
2022-12-06T19:11:31.205Z,101161.69
2022-12-06T19:14:52.905Z,101159.22
2022-12-06T19:18:14.682Z,101164.09
2022-12-06T19:21:37.218Z,101156.97
2022-12-06T19:25:00.998Z,101166.59
2022-12-06T19:28:22.960Z,101160.31
2022-12-06T19:31:45.392Z,101158.50
2022-12-06T19:35:08.625Z,101164.41
2022-12-06T19:38:30.977Z,101167.97
2022-12-06T19:42:11.681Z,101174.00
2022-12-06T19:45:33.303Z,101167.69
2022-12-06T19:48:57.676Z,101154.50
2022-12-06T19:52:19.634Z,101160.66
2022-12-06T19:55:46.610Z,101158.03
2022-12-06T19:59:12.297Z,101156.59
2022-12-06T20:02:34.447Z,101155.34
2022-12-06T20:06:03.569Z,101159.75
2022-12-06T20:09:27.985Z,101157.41
2022-12-06T20:12:49.706Z,101158.03
2022-12-06T20:16:12.978Z,101153.69
2022-12-06T20:19:34.986Z,101148.19
2022-12-06T20:22:56.662Z,101142.91
2022-12-06T20:26:19.120Z,101150.94
2022-12-06T20:29:41.309Z,101148.91
2022-12-06T20:33:04.611Z,101142.75
2022-12-06T20:36:27.376Z,101140.13
2022-12-06T20:39:49.340Z,101138.69
2022-12-06T20:43:11.397Z,101136.25
2022-12-06T20:46:34.293Z,101130.22
2022-12-06T20:49:58.785Z,101127.44
2022-12-06T20:53:21.023Z,101118.31
2022-12-06T20:56:43.701Z,101125.03
2022-12-06T21:00:07.991Z,101128.25
2022-12-06T21:03:31.970Z,101125.50
2022-12-06T21:06:55.575Z,101129.84
2022-12-06T21:10:17.559Z,101127.81
2022-12-06T21:13:39.738Z,101124.25
2022-12-06T21:17:01.631Z,101123.22
2022-12-06T21:20:23.651Z,101119.78
2022-12-06T21:23:46.628Z,101112.75
2022-12-06T21:27:08.573Z,101117.88
2022-12-06T21:30:30.641Z,101109.84
2022-12-06T21:33:52.758Z,101102.81
2022-12-06T21:37:14.749Z,101114.47
2022-12-06T21:40:38.200Z,101118.63
2022-12-06T21:44:01.090Z,101115.91
2022-12-06T21:47:22.867Z,101114.97
2022-12-06T21:50:45.433Z,101116.59
2022-12-06T21:54:07.915Z,101123.91
2022-12-06T21:57:34.318Z,101122.03
2022-12-06T22:00:56.983Z,101119.31
2022-12-06T22:04:19.357Z,101127.16
2022-12-06T22:07:41.303Z,101125.28
2022-12-06T22:11:07.583Z,101127.09
2022-12-06T22:14:31.090Z,101126.16
2022-12-06T22:17:53.019Z,101120.88
2022-12-06T22:21:17.122Z,101106.75
2022-12-06T22:24:38.926Z,101098.91
2022-12-06T22:28:00.788Z,101101.72
2022-12-06T22:31:26.377Z,101100.19
2022-12-06T22:34:48.457Z,101100.00
2022-12-06T22:38:10.141Z,101100.06
2022-12-06T22:41:31.783Z,101100.66
2022-12-06T22:44:53.370Z,101099.63
2022-12-06T22:48:16.719Z,101099.13
2022-12-06T22:51:40.447Z,101088.13
2022-12-06T22:55:01.992Z,101095.69
2022-12-06T22:58:23.765Z,101098.59
2022-12-06T23:01:45.754Z,101094.69
2022-12-06T23:05:09.425Z,101089.19
2022-12-06T23:08:30.903Z,101080.50
2022-12-06T23:11:52.700Z,101085.63
2022-12-06T23:15:14.611Z,101082.63
2022-12-06T23:18:36.602Z,101082.63
2022-12-06T23:21:59.442Z,101071.75
2022-12-06T23:25:21.093Z,101071.56
2022-12-06T23:28:43.626Z,101073.22
2022-12-06T23:32:07.114Z,101073.97
2022-12-06T23:35:28.896Z,101076.94
2022-12-06T23:38:53.987Z,101074.38
2022-12-06T23:42:15.679Z,101076.84
2022-12-06T23:45:37.579Z,101075.31
2022-12-06T23:49:00.066Z,101069.03
2022-12-06T23:52:21.660Z,101069.88
2022-12-06T23:55:44.899Z,101058.28
2022-12-06T23:59:08.625Z,101053.00
